sensor_id;sensor_type;location;lat;lon;timestamp;P1;durP1;ratioP1;P2;durP2;ratioP2
417;SDS011;49;48.530;9.200;2022-10-30T00:00:30;38.93;;;8.57;;
417;SDS011;49;48.530;9.200;2022-10-30T00:02:58;31.70;;;7.80;;
417;SDS011;49;48.530;9.200;2022-10-30T00:05:25;41.33;;;7.70;;
417;SDS011;49;48.530;9.200;2022-10-30T00:07:53;34.23;;;7.30;;
417;SDS011;49;48.530;9.200;2022-10-30T00:10:22;29.93;;;7.30;;
417;SDS011;49;48.530;9.200;2022-10-30T00:12:49;29.40;;;8.30;;
417;SDS011;49;48.530;9.200;2022-10-30T00:15:16;23.00;;;7.47;;
417;SDS011;49;48.530;9.200;2022-10-30T00:17:43;25.90;;;8.60;;
417;SDS011;49;48.530;9.200;2022-10-30T00:20:10;33.30;;;8.20;;
417;SDS011;49;48.530;9.200;2022-10-30T00:22:37;35.50;;;7.43;;
417;SDS011;49;48.530;9.200;2022-10-30T00:25:04;17.13;;;7.57;;
417;SDS011;49;48.530;9.200;2022-10-30T00:27:33;25.07;;;8.53;;
417;SDS011;49;48.530;9.200;2022-10-30T00:29:59;41.20;;;9.00;;
417;SDS011;49;48.530;9.200;2022-10-30T00:32:26;25.43;;;8.20;;
417;SDS011;49;48.530;9.200;2022-10-30T00:34:53;23.30;;;8.73;;
417;SDS011;49;48.530;9.200;2022-10-30T00:37:20;28.00;;;8.30;;
417;SDS011;49;48.530;9.200;2022-10-30T00:39:47;23.03;;;8.03;;
417;SDS011;49;48.530;9.200;2022-10-30T00:42:15;32.23;;;9.30;;
417;SDS011;49;48.530;9.200;2022-10-30T00:44:46;22.53;;;8.20;;
417;SDS011;49;48.530;9.200;2022-10-30T00:47:16;24.27;;;7.70;;
417;SDS011;49;48.530;9.200;2022-10-30T00:49:49;45.87;;;9.10;;
417;SDS011;49;48.530;9.200;2022-10-30T00:52:20;20.07;;;8.10;;
417;SDS011;49;48.530;9.200;2022-10-30T00:54:51;28.67;;;9.60;;
417;SDS011;49;48.530;9.200;2022-10-30T00:57:19;24.00;;;8.83;;
417;SDS011;49;48.530;9.200;2022-10-30T00:59:47;28.40;;;9.20;;
417;SDS011;49;48.530;9.200;2022-10-30T01:02:15;24.57;;;8.23;;
417;SDS011;49;48.530;9.200;2022-10-30T01:04:44;31.87;;;7.97;;
417;SDS011;49;48.530;9.200;2022-10-30T01:07:13;36.60;;;9.60;;
417;SDS011;49;48.530;9.200;2022-10-30T01:09:41;25.20;;;7.70;;
417;SDS011;49;48.530;9.200;2022-10-30T01:12:08;34.13;;;9.70;;
417;SDS011;49;48.530;9.200;2022-10-30T01:14:36;38.23;;;9.17;;
417;SDS011;49;48.530;9.200;2022-10-30T01:17:10;34.87;;;9.97;;
417;SDS011;49;48.530;9.200;2022-10-30T01:20:06;26.97;;;8.77;;
417;SDS011;49;48.530;9.200;2022-10-30T01:22:48;27.20;;;8.97;;
417;SDS011;49;48.530;9.200;2022-10-30T01:25:29;25.73;;;8.83;;
417;SDS011;49;48.530;9.200;2022-10-30T01:28:14;27.30;;;8.83;;
417;SDS011;49;48.530;9.200;2022-10-30T01:30:58;20.50;;;8.03;;
417;SDS011;49;48.530;9.200;2022-10-30T01:33:35;23.87;;;8.20;;
417;SDS011;49;48.530;9.200;2022-10-30T01:36:12;23.73;;;8.00;;
417;SDS011;49;48.530;9.200;2022-10-30T01:38:46;28.03;;;9.40;;
417;SDS011;49;48.530;9.200;2022-10-30T01:41:17;24.13;;;7.90;;
417;SDS011;49;48.530;9.200;2022-10-30T01:43:44;20.90;;;7.50;;
417;SDS011;49;48.530;9.200;2022-10-30T01:46:19;29.20;;;8.20;;
417;SDS011;49;48.530;9.200;2022-10-30T01:51:56;28.97;;;7.73;;
417;SDS011;49;48.530;9.200;2022-10-30T01:54:31;37.13;;;7.40;;
417;SDS011;49;48.530;9.200;2022-10-30T01:57:06;25.40;;;7.67;;
417;SDS011;49;48.530;9.200;2022-10-30T01:59:38;20.50;;;7.77;;
417;SDS011;49;48.530;9.200;2022-10-30T02:02:10;27.97;;;7.27;;
417;SDS011;49;48.530;9.200;2022-10-30T02:04:38;33.77;;;8.20;;
417;SDS011;49;48.530;9.200;2022-10-30T02:07:06;39.93;;;8.33;;
417;SDS011;49;48.530;9.200;2022-10-30T02:09:33;35.20;;;9.60;;
417;SDS011;49;48.530;9.200;2022-10-30T02:12:01;22.37;;;7.20;;
417;SDS011;49;48.530;9.200;2022-10-30T02:14:29;22.17;;;8.07;;
417;SDS011;49;48.530;9.200;2022-10-30T02:16:59;24.67;;;8.83;;
417;SDS011;49;48.530;9.200;2022-10-30T02:19:29;19.93;;;7.70;;
417;SDS011;49;48.530;9.200;2022-10-30T02:21:57;26.97;;;8.27;;
417;SDS011;49;48.530;9.200;2022-10-30T02:24:24;38.20;;;8.60;;
417;SDS011;49;48.530;9.200;2022-10-30T02:26:50;30.63;;;8.47;;
417;SDS011;49;48.530;9.200;2022-10-30T02:29:17;24.07;;;8.20;;
417;SDS011;49;48.530;9.200;2022-10-30T02:31:45;26.33;;;7.13;;
417;SDS011;49;48.530;9.200;2022-10-30T02:34:13;27.43;;;8.73;;
417;SDS011;49;48.530;9.200;2022-10-30T02:36:40;25.53;;;7.40;;
417;SDS011;49;48.530;9.200;2022-10-30T02:39:08;43.63;;;7.47;;
417;SDS011;49;48.530;9.200;2022-10-30T02:41:35;24.83;;;7.87;;
417;SDS011;49;48.530;9.200;2022-10-30T02:44:02;38.23;;;8.50;;
417;SDS011;49;48.530;9.200;2022-10-30T02:46:30;26.37;;;7.93;;
417;SDS011;49;48.530;9.200;2022-10-30T02:48:57;24.70;;;8.13;;
417;SDS011;49;48.530;9.200;2022-10-30T02:51:24;20.50;;;7.40;;
417;SDS011;49;48.530;9.200;2022-10-30T02:53:51;29.93;;;8.70;;
417;SDS011;49;48.530;9.200;2022-10-30T02:56:19;19.27;;;6.90;;
417;SDS011;49;48.530;9.200;2022-10-30T02:58:46;20.67;;;8.00;;
417;SDS011;49;48.530;9.200;2022-10-30T03:01:13;38.17;;;8.80;;
417;SDS011;49;48.530;9.200;2022-10-30T03:03:42;27.40;;;7.13;;
417;SDS011;49;48.530;9.200;2022-10-30T03:06:10;31.53;;;8.60;;
417;SDS011;49;48.530;9.200;2022-10-30T03:08:39;24.23;;;7.63;;
417;SDS011;49;48.530;9.200;2022-10-30T03:11:07;16.30;;;7.27;;
417;SDS011;49;48.530;9.200;2022-10-30T03:13:36;25.77;;;8.20;;
417;SDS011;49;48.530;9.200;2022-10-30T03:16:05;21.87;;;7.33;;
417;SDS011;49;48.530;9.200;2022-10-30T03:18:34;25.33;;;7.23;;
417;SDS011;49;48.530;9.200;2022-10-30T03:21:02;21.83;;;7.87;;
417;SDS011;49;48.530;9.200;2022-10-30T03:23:30;18.10;;;8.30;;
417;SDS011;49;48.530;9.200;2022-10-30T03:25:58;25.00;;;8.33;;
417;SDS011;49;48.530;9.200;2022-10-30T03:28:26;21.50;;;8.27;;
417;SDS011;49;48.530;9.200;2022-10-30T03:30:58;27.07;;;8.57;;
417;SDS011;49;48.530;9.200;2022-10-30T03:33:25;29.17;;;8.00;;
417;SDS011;49;48.530;9.200;2022-10-30T03:35:53;21.43;;;8.20;;
417;SDS011;49;48.530;9.200;2022-10-30T03:38:20;20.60;;;7.77;;
417;SDS011;49;48.530;9.200;2022-10-30T03:40:46;21.47;;;7.40;;
417;SDS011;49;48.530;9.200;2022-10-30T03:43:13;26.30;;;7.40;;
417;SDS011;49;48.530;9.200;2022-10-30T03:45:44;23.83;;;7.37;;
417;SDS011;49;48.530;9.200;2022-10-30T03:48:14;29.27;;;8.87;;
417;SDS011;49;48.530;9.200;2022-10-30T03:50:41;22.33;;;6.97;;
417;SDS011;49;48.530;9.200;2022-10-30T03:53:08;25.77;;;8.40;;
417;SDS011;49;48.530;9.200;2022-10-30T03:55:35;30.90;;;8.83;;
417;SDS011;49;48.530;9.200;2022-10-30T03:58:02;37.43;;;8.17;;
417;SDS011;49;48.530;9.200;2022-10-30T04:00:29;18.57;;;6.80;;
417;SDS011;49;48.530;9.200;2022-10-30T04:02:55;25.43;;;7.43;;
417;SDS011;49;48.530;9.200;2022-10-30T04:05:25;33.43;;;7.20;;
417;SDS011;49;48.530;9.200;2022-10-30T04:07:56;28.43;;;7.87;;
417;SDS011;49;48.530;9.200;2022-10-30T04:10:24;21.53;;;9.33;;
417;SDS011;49;48.530;9.200;2022-10-30T04:12:52;21.73;;;7.07;;
417;SDS011;49;48.530;9.200;2022-10-30T04:15:25;30.63;;;7.93;;
417;SDS011;49;48.530;9.200;2022-10-30T04:17:52;18.13;;;7.43;;
417;SDS011;49;48.530;9.200;2022-10-30T04:20:19;28.43;;;7.67;;
417;SDS011;49;48.530;9.200;2022-10-30T04:22:53;37.87;;;10.10;;
417;SDS011;49;48.530;9.200;2022-10-30T04:25:21;18.17;;;7.07;;
417;SDS011;49;48.530;9.200;2022-10-30T04:27:48;23.43;;;7.57;;
417;SDS011;49;48.530;9.200;2022-10-30T04:30:17;29.70;;;7.67;;
417;SDS011;49;48.530;9.200;2022-10-30T04:32:45;19.83;;;6.97;;
417;SDS011;49;48.530;9.200;2022-10-30T04:35:12;30.00;;;7.30;;
417;SDS011;49;48.530;9.200;2022-10-30T04:37:40;26.07;;;8.03;;
417;SDS011;49;48.530;9.200;2022-10-30T04:40:09;23.80;;;7.40;;
417;SDS011;49;48.530;9.200;2022-10-30T04:42:36;29.87;;;7.63;;
417;SDS011;49;48.530;9.200;2022-10-30T04:45:03;25.07;;;8.10;;
417;SDS011;49;48.530;9.200;2022-10-30T04:47:31;21.30;;;7.37;;
417;SDS011;49;48.530;9.200;2022-10-30T04:49:58;27.57;;;8.03;;
417;SDS011;49;48.530;9.200;2022-10-30T04:52:25;18.80;;;7.03;;
417;SDS011;49;48.530;9.200;2022-10-30T04:54:52;33.00;;;7.50;;
417;SDS011;49;48.530;9.200;2022-10-30T04:57:20;28.03;;;7.30;;
417;SDS011;49;48.530;9.200;2022-10-30T04:59:47;26.07;;;7.60;;
417;SDS011;49;48.530;9.200;2022-10-30T05:02:14;20.30;;;7.70;;
417;SDS011;49;48.530;9.200;2022-10-30T05:04:43;30.10;;;8.43;;
417;SDS011;49;48.530;9.200;2022-10-30T05:07:10;27.87;;;7.60;;
417;SDS011;49;48.530;9.200;2022-10-30T05:09:37;28.80;;;6.47;;
417;SDS011;49;48.530;9.200;2022-10-30T05:12:05;34.77;;;7.30;;
417;SDS011;49;48.530;9.200;2022-10-30T05:14:33;21.13;;;7.90;;
417;SDS011;49;48.530;9.200;2022-10-30T05:17:00;26.13;;;6.90;;
417;SDS011;49;48.530;9.200;2022-10-30T05:19:27;22.07;;;7.13;;
417;SDS011;49;48.530;9.200;2022-10-30T05:21:54;25.87;;;8.77;;
417;SDS011;49;48.530;9.200;2022-10-30T05:24:21;21.57;;;7.40;;
417;SDS011;49;48.530;9.200;2022-10-30T05:26:48;20.00;;;7.50;;
417;SDS011;49;48.530;9.200;2022-10-30T05:29:15;36.13;;;8.20;;
417;SDS011;49;48.530;9.200;2022-10-30T05:31:43;31.17;;;7.47;;
417;SDS011;49;48.530;9.200;2022-10-30T05:34:10;27.10;;;7.50;;
417;SDS011;49;48.530;9.200;2022-10-30T05:36:37;25.30;;;8.30;;
417;SDS011;49;48.530;9.200;2022-10-30T05:39:04;22.33;;;6.63;;
417;SDS011;49;48.530;9.200;2022-10-30T05:41:31;16.87;;;7.03;;
417;SDS011;49;48.530;9.200;2022-10-30T05:43:57;26.90;;;8.00;;
417;SDS011;49;48.530;9.200;2022-10-30T05:46:24;25.30;;;7.30;;
417;SDS011;49;48.530;9.200;2022-10-30T05:48:52;25.53;;;7.87;;
417;SDS011;49;48.530;9.200;2022-10-30T05:51:19;27.83;;;7.57;;
417;SDS011;49;48.530;9.200;2022-10-30T05:53:46;25.73;;;7.30;;
417;SDS011;49;48.530;9.200;2022-10-30T05:56:13;27.33;;;7.90;;
417;SDS011;49;48.530;9.200;2022-10-30T05:58:40;24.27;;;8.13;;
417;SDS011;49;48.530;9.200;2022-10-30T06:01:07;25.00;;;6.90;;
417;SDS011;49;48.530;9.200;2022-10-30T06:03:34;39.90;;;7.20;;
417;SDS011;49;48.530;9.200;2022-10-30T06:06:02;32.37;;;6.83;;
417;SDS011;49;48.530;9.200;2022-10-30T06:08:29;20.43;;;6.70;;
417;SDS011;49;48.530;9.200;2022-10-30T06:10:56;33.70;;;7.20;;
417;SDS011;49;48.530;9.200;2022-10-30T06:13:23;19.13;;;8.33;;
417;SDS011;49;48.530;9.200;2022-10-30T06:15:52;26.13;;;6.37;;
417;SDS011;49;48.530;9.200;2022-10-30T06:18:19;18.43;;;6.63;;
417;SDS011;49;48.530;9.200;2022-10-30T06:20:47;22.20;;;6.77;;
417;SDS011;49;48.530;9.200;2022-10-30T06:23:15;25.53;;;7.07;;
417;SDS011;49;48.530;9.200;2022-10-30T06:25:42;25.13;;;7.40;;
417;SDS011;49;48.530;9.200;2022-10-30T06:28:09;18.93;;;6.43;;
417;SDS011;49;48.530;9.200;2022-10-30T06:30:37;29.93;;;6.43;;
417;SDS011;49;48.530;9.200;2022-10-30T06:33:05;16.10;;;7.33;;
417;SDS011;49;48.530;9.200;2022-10-30T06:35:32;29.73;;;6.97;;
417;SDS011;49;48.530;9.200;2022-10-30T06:37:59;20.40;;;7.10;;
417;SDS011;49;48.530;9.200;2022-10-30T06:40:27;31.70;;;8.00;;
417;SDS011;49;48.530;9.200;2022-10-30T06:42:55;19.80;;;6.40;;
417;SDS011;49;48.530;9.200;2022-10-30T06:45:22;23.27;;;6.27;;
417;SDS011;49;48.530;9.200;2022-10-30T06:47:49;25.47;;;6.03;;
417;SDS011;49;48.530;9.200;2022-10-30T06:50:17;18.33;;;6.17;;
417;SDS011;49;48.530;9.200;2022-10-30T06:52:46;15.97;;;6.67;;
417;SDS011;49;48.530;9.200;2022-10-30T06:55:13;17.13;;;6.20;;
417;SDS011;49;48.530;9.200;2022-10-30T06:57:41;24.67;;;6.17;;
417;SDS011;49;48.530;9.200;2022-10-30T07:00:09;18.13;;;6.13;;
417;SDS011;49;48.530;9.200;2022-10-30T07:02:37;17.90;;;5.83;;
417;SDS011;49;48.530;9.200;2022-10-30T07:05:04;16.10;;;6.10;;
417;SDS011;49;48.530;9.200;2022-10-30T07:07:31;21.30;;;5.93;;
417;SDS011;49;48.530;9.200;2022-10-30T07:09:58;26.80;;;6.33;;
417;SDS011;49;48.530;9.200;2022-10-30T07:12:24;21.47;;;6.70;;
417;SDS011;49;48.530;9.200;2022-10-30T07:14:53;26.53;;;8.70;;
417;SDS011;49;48.530;9.200;2022-10-30T07:17:20;15.83;;;7.17;;
417;SDS011;49;48.530;9.200;2022-10-30T07:19:47;13.80;;;6.40;;
417;SDS011;49;48.530;9.200;2022-10-30T07:22:13;25.80;;;8.80;;
417;SDS011;49;48.530;9.200;2022-10-30T07:24:40;22.30;;;8.90;;
417;SDS011;49;48.530;9.200;2022-10-30T07:27:07;26.23;;;8.00;;
417;SDS011;49;48.530;9.200;2022-10-30T07:29:34;21.47;;;8.43;;
417;SDS011;49;48.530;9.200;2022-10-30T07:32:02;32.37;;;9.30;;
417;SDS011;49;48.530;9.200;2022-10-30T07:34:29;27.80;;;8.80;;
417;SDS011;49;48.530;9.200;2022-10-30T07:36:57;31.67;;;9.33;;
417;SDS011;49;48.530;9.200;2022-10-30T07:39:23;25.90;;;8.27;;
417;SDS011;49;48.530;9.200;2022-10-30T07:41:52;24.07;;;8.30;;
417;SDS011;49;48.530;9.200;2022-10-30T07:44:20;28.70;;;5.97;;
417;SDS011;49;48.530;9.200;2022-10-30T07:46:46;21.07;;;6.67;;
417;SDS011;49;48.530;9.200;2022-10-30T07:49:15;19.87;;;5.80;;
417;SDS011;49;48.530;9.200;2022-10-30T07:51:41;18.93;;;5.47;;
417;SDS011;49;48.530;9.200;2022-10-30T07:54:08;14.83;;;5.80;;
417;SDS011;49;48.530;9.200;2022-10-30T07:56:35;23.23;;;6.40;;
417;SDS011;49;48.530;9.200;2022-10-30T07:59:02;28.30;;;6.70;;
417;SDS011;49;48.530;9.200;2022-10-30T08:01:29;18.43;;;5.50;;
417;SDS011;49;48.530;9.200;2022-10-30T08:03:56;23.93;;;5.60;;
417;SDS011;49;48.530;9.200;2022-10-30T08:06:24;49.93;;;7.90;;
417;SDS011;49;48.530;9.200;2022-10-30T08:08:51;37.97;;;8.90;;
417;SDS011;49;48.530;9.200;2022-10-30T08:11:18;35.17;;;5.73;;
417;SDS011;49;48.530;9.200;2022-10-30T08:13:45;27.40;;;6.07;;
417;SDS011;49;48.530;9.200;2022-10-30T08:16:12;24.27;;;6.10;;
417;SDS011;49;48.530;9.200;2022-10-30T08:18:39;14.23;;;6.93;;
417;SDS011;49;48.530;9.200;2022-10-30T08:21:06;28.93;;;6.20;;
417;SDS011;49;48.530;9.200;2022-10-30T08:23:35;23.93;;;6.23;;
417;SDS011;49;48.530;9.200;2022-10-30T08:26:02;21.17;;;5.70;;
417;SDS011;49;48.530;9.200;2022-10-30T08:28:29;16.37;;;5.60;;
417;SDS011;49;48.530;9.200;2022-10-30T08:30:56;24.07;;;6.07;;
417;SDS011;49;48.530;9.200;2022-10-30T08:33:23;17.23;;;5.63;;
417;SDS011;49;48.530;9.200;2022-10-30T08:35:51;32.83;;;6.27;;
417;SDS011;49;48.530;9.200;2022-10-30T08:38:20;22.63;;;6.47;;
417;SDS011;49;48.530;9.200;2022-10-30T08:40:49;24.13;;;7.10;;
417;SDS011;49;48.530;9.200;2022-10-30T08:43:16;24.07;;;7.03;;
417;SDS011;49;48.530;9.200;2022-10-30T08:45:44;24.23;;;6.70;;
417;SDS011;49;48.530;9.200;2022-10-30T08:48:12;26.03;;;6.30;;
417;SDS011;49;48.530;9.200;2022-10-30T08:50:41;30.60;;;7.53;;
417;SDS011;49;48.530;9.200;2022-10-30T08:53:10;19.43;;;5.93;;
417;SDS011;49;48.530;9.200;2022-10-30T08:55:38;32.73;;;8.43;;
417;SDS011;49;48.530;9.200;2022-10-30T08:58:08;20.73;;;6.50;;
417;SDS011;49;48.530;9.200;2022-10-30T09:00:34;25.00;;;7.07;;
417;SDS011;49;48.530;9.200;2022-10-30T09:03:02;30.63;;;6.50;;
417;SDS011;49;48.530;9.200;2022-10-30T09:05:29;33.57;;;6.17;;
417;SDS011;49;48.530;9.200;2022-10-30T09:07:56;32.17;;;6.90;;
417;SDS011;49;48.530;9.200;2022-10-30T09:10:24;28.47;;;5.90;;
417;SDS011;49;48.530;9.200;2022-10-30T09:12:54;23.23;;;4.40;;
417;SDS011;49;48.530;9.200;2022-10-30T09:15:23;18.90;;;5.40;;
417;SDS011;49;48.530;9.200;2022-10-30T09:17:55;18.47;;;5.60;;
417;SDS011;49;48.530;9.200;2022-10-30T09:20:22;27.67;;;6.00;;
417;SDS011;49;48.530;9.200;2022-10-30T09:22:49;15.20;;;5.13;;
417;SDS011;49;48.530;9.200;2022-10-30T09:25:16;19.43;;;4.70;;
417;SDS011;49;48.530;9.200;2022-10-30T09:27:43;21.00;;;5.57;;
417;SDS011;49;48.530;9.200;2022-10-30T09:30:10;20.63;;;6.70;;
417;SDS011;49;48.530;9.200;2022-10-30T09:32:39;14.70;;;5.13;;
417;SDS011;49;48.530;9.200;2022-10-30T09:35:06;17.13;;;5.33;;
417;SDS011;49;48.530;9.200;2022-10-30T09:37:34;21.37;;;5.83;;
417;SDS011;49;48.530;9.200;2022-10-30T09:40:02;22.43;;;5.63;;
417;SDS011;49;48.530;9.200;2022-10-30T09:42:36;21.57;;;5.80;;
417;SDS011;49;48.530;9.200;2022-10-30T09:45:17;13.03;;;4.67;;
417;SDS011;49;48.530;9.200;2022-10-30T09:47:58;18.20;;;5.80;;
417;SDS011;49;48.530;9.200;2022-10-30T09:50:36;36.30;;;5.57;;
417;SDS011;49;48.530;9.200;2022-10-30T09:53:12;15.10;;;4.40;;
417;SDS011;49;48.530;9.200;2022-10-30T09:55:49;22.93;;;5.33;;
417;SDS011;49;48.530;9.200;2022-10-30T09:58:24;19.73;;;4.80;;
417;SDS011;49;48.530;9.200;2022-10-30T10:01:01;18.50;;;4.27;;
417;SDS011;49;48.530;9.200;2022-10-30T10:03:40;39.33;;;5.50;;
417;SDS011;49;48.530;9.200;2022-10-30T10:06:18;18.50;;;4.70;;
417;SDS011;49;48.530;9.200;2022-10-30T10:08:47;15.67;;;4.73;;
417;SDS011;49;48.530;9.200;2022-10-30T10:11:19;13.53;;;4.93;;
417;SDS011;49;48.530;9.200;2022-10-30T10:13:50;13.10;;;5.10;;
417;SDS011;49;48.530;9.200;2022-10-30T10:16:19;20.20;;;5.30;;
417;SDS011;49;48.530;9.200;2022-10-30T10:18:53;24.87;;;4.90;;
417;SDS011;49;48.530;9.200;2022-10-30T10:21:26;15.73;;;5.70;;
417;SDS011;49;48.530;9.200;2022-10-30T10:23:55;20.87;;;4.73;;
417;SDS011;49;48.530;9.200;2022-10-30T10:26:28;13.17;;;5.20;;
417;SDS011;49;48.530;9.200;2022-10-30T10:29:04;15.90;;;4.70;;
417;SDS011;49;48.530;9.200;2022-10-30T10:31:43;20.53;;;4.80;;
417;SDS011;49;48.530;9.200;2022-10-30T10:34:24;11.70;;;4.50;;
417;SDS011;49;48.530;9.200;2022-10-30T10:37:09;18.93;;;5.60;;
417;SDS011;49;48.530;9.200;2022-10-30T10:39:49;13.03;;;4.07;;
417;SDS011;49;48.530;9.200;2022-10-30T10:42:33;13.47;;;4.93;;
417;SDS011;49;48.530;9.200;2022-10-30T10:45:18;12.53;;;4.40;;
417;SDS011;49;48.530;9.200;2022-10-30T10:47:58;24.57;;;5.30;;
417;SDS011;49;48.530;9.200;2022-10-30T10:50:39;15.23;;;4.23;;
417;SDS011;49;48.530;9.200;2022-10-30T10:53:14;19.50;;;5.33;;
417;SDS011;49;48.530;9.200;2022-10-30T10:55:48;13.27;;;4.13;;
417;SDS011;49;48.530;9.200;2022-10-30T10:58:21;16.50;;;4.30;;
417;SDS011;49;48.530;9.200;2022-10-30T11:00:52;12.53;;;5.23;;
417;SDS011;49;48.530;9.200;2022-10-30T11:03:23;18.13;;;4.40;;
417;SDS011;49;48.530;9.200;2022-10-30T11:05:57;14.07;;;4.07;;
417;SDS011;49;48.530;9.200;2022-10-30T11:08:31;13.47;;;4.60;;
417;SDS011;49;48.530;9.200;2022-10-30T11:10:59;27.53;;;3.77;;
417;SDS011;49;48.530;9.200;2022-10-30T11:13:28;20.40;;;4.53;;
417;SDS011;49;48.530;9.200;2022-10-30T11:15:57;15.53;;;5.20;;
417;SDS011;49;48.530;9.200;2022-10-30T11:18:29;24.07;;;4.77;;
417;SDS011;49;48.530;9.200;2022-10-30T11:21:00;11.80;;;4.20;;
417;SDS011;49;48.530;9.200;2022-10-30T11:23:33;16.23;;;4.20;;
417;SDS011;49;48.530;9.200;2022-10-30T11:26:03;19.00;;;4.37;;
417;SDS011;49;48.530;9.200;2022-10-30T11:28:50;14.60;;;4.17;;
417;SDS011;49;48.530;9.200;2022-10-30T11:31:21;21.63;;;4.73;;
417;SDS011;49;48.530;9.200;2022-10-30T11:33:51;10.67;;;3.83;;
417;SDS011;49;48.530;9.200;2022-10-30T11:36:22;17.50;;;4.10;;
417;SDS011;49;48.530;9.200;2022-10-30T11:38:50;21.10;;;4.10;;
417;SDS011;49;48.530;9.200;2022-10-30T11:41:19;20.63;;;3.97;;
417;SDS011;49;48.530;9.200;2022-10-30T11:43:46;10.03;;;3.83;;
417;SDS011;49;48.530;9.200;2022-10-30T11:46:18;13.33;;;3.90;;
417;SDS011;49;48.530;9.200;2022-10-30T11:48:47;17.13;;;5.17;;
417;SDS011;49;48.530;9.200;2022-10-30T11:51:29;13.10;;;4.50;;
417;SDS011;49;48.530;9.200;2022-10-30T11:53:58;15.27;;;4.43;;
417;SDS011;49;48.530;9.200;2022-10-30T11:56:26;10.43;;;3.10;;
417;SDS011;49;48.530;9.200;2022-10-30T11:58:55;22.83;;;4.13;;
417;SDS011;49;48.530;9.200;2022-10-30T12:01:26;21.70;;;3.93;;
417;SDS011;49;48.530;9.200;2022-10-30T12:03:54;10.40;;;3.50;;
417;SDS011;49;48.530;9.200;2022-10-30T12:06:26;11.03;;;3.90;;
417;SDS011;49;48.530;9.200;2022-10-30T12:08:58;27.27;;;5.30;;
417;SDS011;49;48.530;9.200;2022-10-30T12:11:27;15.90;;;7.40;;
417;SDS011;49;48.530;9.200;2022-10-30T12:13:56;12.37;;;4.40;;
417;SDS011;49;48.530;9.200;2022-10-30T12:16:23;11.93;;;4.40;;
417;SDS011;49;48.530;9.200;2022-10-30T12:18:51;9.53;;;3.70;;
417;SDS011;49;48.530;9.200;2022-10-30T12:21:22;29.30;;;4.87;;
417;SDS011;49;48.530;9.200;2022-10-30T12:23:51;15.70;;;4.20;;
417;SDS011;49;48.530;9.200;2022-10-30T12:26:22;10.90;;;3.47;;
417;SDS011;49;48.530;9.200;2022-10-30T12:28:52;15.50;;;4.10;;
417;SDS011;49;48.530;9.200;2022-10-30T12:31:23;13.37;;;4.60;;
417;SDS011;49;48.530;9.200;2022-10-30T12:33:57;14.30;;;5.10;;
417;SDS011;49;48.530;9.200;2022-10-30T12:36:33;15.03;;;4.90;;
417;SDS011;49;48.530;9.200;2022-10-30T12:39:08;15.03;;;4.33;;
417;SDS011;49;48.530;9.200;2022-10-30T12:41:41;16.60;;;3.87;;
417;SDS011;49;48.530;9.200;2022-10-30T12:44:12;15.13;;;4.80;;
417;SDS011;49;48.530;9.200;2022-10-30T12:46:44;13.13;;;4.00;;
417;SDS011;49;48.530;9.200;2022-10-30T12:49:18;13.10;;;3.93;;
417;SDS011;49;48.530;9.200;2022-10-30T12:51:51;20.27;;;4.30;;
417;SDS011;49;48.530;9.200;2022-10-30T12:54:24;12.50;;;4.43;;
417;SDS011;49;48.530;9.200;2022-10-30T12:57:04;21.67;;;4.60;;
417;SDS011;49;48.530;9.200;2022-10-30T12:59:37;13.27;;;4.60;;
417;SDS011;49;48.530;9.200;2022-10-30T13:02:12;18.57;;;5.13;;
417;SDS011;49;48.530;9.200;2022-10-30T13:04:57;15.57;;;4.53;;
417;SDS011;49;48.530;9.200;2022-10-30T13:07:30;18.07;;;4.93;;
417;SDS011;49;48.530;9.200;2022-10-30T13:10:04;8.13;;;4.40;;
417;SDS011;49;48.530;9.200;2022-10-30T13:12:45;17.87;;;4.53;;
417;SDS011;49;48.530;9.200;2022-10-30T13:15:17;13.00;;;4.63;;
417;SDS011;49;48.530;9.200;2022-10-30T13:17:49;13.10;;;4.27;;
417;SDS011;49;48.530;9.200;2022-10-30T13:20:25;14.40;;;4.27;;
417;SDS011;49;48.530;9.200;2022-10-30T13:22:56;16.87;;;3.90;;
417;SDS011;49;48.530;9.200;2022-10-30T13:25:30;14.30;;;3.80;;
417;SDS011;49;48.530;9.200;2022-10-30T13:28:03;7.80;;;3.67;;
417;SDS011;49;48.530;9.200;2022-10-30T13:30:38;15.20;;;4.20;;
417;SDS011;49;48.530;9.200;2022-10-30T13:33:09;16.67;;;4.77;;
417;SDS011;49;48.530;9.200;2022-10-30T13:35:41;13.10;;;4.00;;
417;SDS011;49;48.530;9.200;2022-10-30T13:38:31;17.40;;;3.90;;
417;SDS011;49;48.530;9.200;2022-10-30T13:41:07;13.33;;;3.90;;
417;SDS011;49;48.530;9.200;2022-10-30T13:43:44;22.40;;;4.33;;
417;SDS011;49;48.530;9.200;2022-10-30T13:46:23;19.00;;;3.60;;
417;SDS011;49;48.530;9.200;2022-10-30T13:49:02;14.70;;;4.30;;
417;SDS011;49;48.530;9.200;2022-10-30T13:51:38;12.53;;;3.50;;
417;SDS011;49;48.530;9.200;2022-10-30T13:54:09;11.80;;;4.10;;
417;SDS011;49;48.530;9.200;2022-10-30T13:56:41;12.10;;;3.60;;
417;SDS011;49;48.530;9.200;2022-10-30T13:59:19;16.40;;;4.23;;
417;SDS011;49;48.530;9.200;2022-10-30T14:02:04;19.77;;;4.97;;
417;SDS011;49;48.530;9.200;2022-10-30T14:04:40;15.57;;;4.50;;
417;SDS011;49;48.530;9.200;2022-10-30T14:07:20;9.37;;;4.30;;
417;SDS011;49;48.530;9.200;2022-10-30T14:09:55;9.87;;;4.40;;
417;SDS011;49;48.530;9.200;2022-10-30T14:12:43;18.47;;;4.10;;
417;SDS011;49;48.530;9.200;2022-10-30T14:15:31;14.03;;;4.40;;
417;SDS011;49;48.530;9.200;2022-10-30T14:20:52;9.00;;;3.87;;
417;SDS011;49;48.530;9.200;2022-10-30T14:23:22;26.43;;;5.23;;
417;SDS011;49;48.530;9.200;2022-10-30T14:26:13;12.33;;;3.93;;
417;SDS011;49;48.530;9.200;2022-10-30T14:28:44;10.03;;;4.20;;
417;SDS011;49;48.530;9.200;2022-10-30T14:31:31;11.20;;;4.37;;
417;SDS011;49;48.530;9.200;2022-10-30T14:34:00;18.80;;;4.37;;
417;SDS011;49;48.530;9.200;2022-10-30T14:39:27;18.40;;;5.77;;
417;SDS011;49;48.530;9.200;2022-10-30T14:41:58;15.23;;;4.50;;
417;SDS011;49;48.530;9.200;2022-10-30T14:47:42;21.50;;;5.07;;
417;SDS011;49;48.530;9.200;2022-10-30T14:50:23;19.97;;;5.50;;
417;SDS011;49;48.530;9.200;2022-10-30T14:53:00;10.30;;;4.20;;
417;SDS011;49;48.530;9.200;2022-10-30T14:55:47;11.63;;;4.60;;
417;SDS011;49;48.530;9.200;2022-10-30T14:58:21;17.97;;;5.30;;
417;SDS011;49;48.530;9.200;2022-10-30T15:00:51;11.73;;;5.00;;
417;SDS011;49;48.530;9.200;2022-10-30T15:03:48;10.13;;;5.20;;
417;SDS011;49;48.530;9.200;2022-10-30T15:06:21;13.23;;;5.80;;
417;SDS011;49;48.530;9.200;2022-10-30T15:09:05;20.53;;;6.20;;
417;SDS011;49;48.530;9.200;2022-10-30T15:11:46;17.83;;;4.63;;
417;SDS011;49;48.530;9.200;2022-10-30T15:14:23;17.07;;;5.10;;
417;SDS011;49;48.530;9.200;2022-10-30T15:16:54;22.63;;;5.07;;
417;SDS011;49;48.530;9.200;2022-10-30T15:19:23;12.40;;;4.47;;
417;SDS011;49;48.530;9.200;2022-10-30T15:21:52;15.87;;;6.23;;
417;SDS011;49;48.530;9.200;2022-10-30T15:24:22;37.63;;;5.23;;
417;SDS011;49;48.530;9.200;2022-10-30T15:26:51;17.43;;;5.10;;
417;SDS011;49;48.530;9.200;2022-10-30T15:29:21;15.37;;;5.23;;
417;SDS011;49;48.530;9.200;2022-10-30T15:31:56;9.80;;;4.80;;
417;SDS011;49;48.530;9.200;2022-10-30T15:34:27;8.00;;;4.50;;
417;SDS011;49;48.530;9.200;2022-10-30T15:36:58;13.90;;;5.47;;
417;SDS011;49;48.530;9.200;2022-10-30T15:39:24;13.90;;;5.83;;
417;SDS011;49;48.530;9.200;2022-10-30T15:41:52;20.13;;;7.53;;
417;SDS011;49;48.530;9.200;2022-10-30T15:44:21;25.20;;;7.30;;
417;SDS011;49;48.530;9.200;2022-10-30T15:46:51;14.37;;;7.77;;
417;SDS011;49;48.530;9.200;2022-10-30T15:49:22;17.77;;;7.43;;
417;SDS011;49;48.530;9.200;2022-10-30T15:51:57;20.03;;;6.20;;
417;SDS011;49;48.530;9.200;2022-10-30T15:54:25;24.03;;;8.77;;
417;SDS011;49;48.530;9.200;2022-10-30T15:56:54;18.00;;;8.73;;
417;SDS011;49;48.530;9.200;2022-10-30T15:59:23;14.83;;;7.83;;
417;SDS011;49;48.530;9.200;2022-10-30T16:01:53;27.67;;;7.20;;
417;SDS011;49;48.530;9.200;2022-10-30T16:04:21;23.33;;;11.70;;
417;SDS011;49;48.530;9.200;2022-10-30T16:06:51;28.40;;;10.00;;
417;SDS011;49;48.530;9.200;2022-10-30T16:09:19;19.80;;;9.20;;
417;SDS011;49;48.530;9.200;2022-10-30T16:11:48;24.17;;;8.50;;
417;SDS011;49;48.530;9.200;2022-10-30T16:14:17;11.90;;;6.97;;
417;SDS011;49;48.530;9.200;2022-10-30T16:16:47;17.63;;;6.93;;